sensor_id;sensor_type;location;lat;lon;timestamp;pressure;altitude;pressure_sealevel;temperature;humidity
76611;BME280;65503;48.534;9.062;2023-04-23T00:01:46;96359.75;;;16.17;52.62
76611;BME280;65503;48.534;9.062;2023-04-23T00:04:14;96367.72;;;16.17;53.06
76611;BME280;65503;48.534;9.062;2023-04-23T00:06:41;96361.31;;;16.18;53.13
76611;BME280;65503;48.534;9.062;2023-04-23T00:09:08;96361.88;;;16.15;52.97
76611;BME280;65503;48.534;9.062;2023-04-23T00:11:35;96363.97;;;16.18;53.38
76611;BME280;65503;48.534;9.062;2023-04-23T00:14:02;96365.53;;;16.19;52.79
76611;BME280;65503;48.534;9.062;2023-04-23T00:16:28;96367.72;;;16.17;52.43
76611;BME280;65503;48.534;9.062;2023-04-23T00:18:55;96366.91;;;16.17;52.82
76611;BME280;65503;48.534;9.062;2023-04-23T00:21:21;96369.00;;;16.20;52.69
76611;BME280;65503;48.534;9.062;2023-04-23T00:23:48;96368.25;;;16.14;52.80
76611;BME280;65503;48.534;9.062;2023-04-23T00:26:14;96373.56;;;16.14;52.84
76611;BME280;65503;48.534;9.062;2023-04-23T00:28:42;96364.59;;;16.10;52.74
76611;BME280;65503;48.534;9.062;2023-04-23T00:31:09;96365.66;;;16.09;52.90
76611;BME280;65503;48.534;9.062;2023-04-23T00:33:35;96365.06;;;16.12;52.96
76611;BME280;65503;48.534;9.062;2023-04-23T00:36:02;96363.34;;;15.97;53.22
76611;BME280;65503;48.534;9.062;2023-04-23T00:38:28;96371.69;;;15.86;54.24
76611;BME280;65503;48.534;9.062;2023-04-23T00:40:55;96375.97;;;15.82;54.76
76611;BME280;65503;48.534;9.062;2023-04-23T00:43:21;96377.59;;;15.73;55.59
76611;BME280;65503;48.534;9.062;2023-04-23T00:45:49;96377.22;;;15.45;57.09
76611;BME280;65503;48.534;9.062;2023-04-23T00:48:16;96382.09;;;15.28;58.73
76611;BME280;65503;48.534;9.062;2023-04-23T00:50:43;96383.03;;;15.03;59.30
76611;BME280;65503;48.534;9.062;2023-04-23T00:53:09;96377.81;;;14.78;60.98
76611;BME280;65503;48.534;9.062;2023-04-23T00:55:36;96382.09;;;14.64;62.10
76611;BME280;65503;48.534;9.062;2023-04-23T00:58:03;96389.81;;;14.45;62.88
76611;BME280;65503;48.534;9.062;2023-04-23T01:00:29;96386.09;;;14.41;63.62
76611;BME280;65503;48.534;9.062;2023-04-23T01:02:56;96386.13;;;14.21;63.81
76611;BME280;65503;48.534;9.062;2023-04-23T01:05:24;96390.88;;;14.08;64.84
76611;BME280;65503;48.534;9.062;2023-04-23T01:07:50;96395.66;;;13.91;65.26
76611;BME280;65503;48.534;9.062;2023-04-23T01:10:17;96395.13;;;13.94;65.74
76611;BME280;65503;48.534;9.062;2023-04-23T01:12:43;96393.00;;;13.96;65.68
76611;BME280;65503;48.534;9.062;2023-04-23T01:15:10;96395.41;;;13.98;65.62
76611;BME280;65503;48.534;9.062;2023-04-23T01:17:36;96398.28;;;13.96;65.76
76611;BME280;65503;48.534;9.062;2023-04-23T01:20:04;96388.25;;;13.98;66.24
76611;BME280;65503;48.534;9.062;2023-04-23T01:22:35;96399.88;;;13.97;66.37
76611;BME280;65503;48.534;9.062;2023-04-23T01:25:02;96404.66;;;14.00;66.29
76611;BME280;65503;48.534;9.062;2023-04-23T01:27:29;96402.78;;;13.96;65.82
76611;BME280;65503;48.534;9.062;2023-04-23T01:29:56;96400.94;;;13.96;65.91
76611;BME280;65503;48.534;9.062;2023-04-23T01:32:23;96398.56;;;14.00;65.67
76611;BME280;65503;48.534;9.062;2023-04-23T01:34:50;96405.16;;;14.07;65.68
76611;BME280;65503;48.534;9.062;2023-04-23T01:37:19;96405.44;;;14.16;65.38
76611;BME280;65503;48.534;9.062;2023-04-23T01:39:46;96398.81;;;14.19;65.10
76611;BME280;65503;48.534;9.062;2023-04-23T01:42:12;96400.66;;;14.18;65.31
76611;BME280;65503;48.534;9.062;2023-04-23T01:44:39;96404.66;;;14.21;65.43
76611;BME280;65503;48.534;9.062;2023-04-23T01:47:06;96400.16;;;14.21;65.39
76611;BME280;65503;48.534;9.062;2023-04-23T01:49:33;96408.88;;;14.17;65.36
76611;BME280;65503;48.534;9.062;2023-04-23T01:51:59;96404.91;;;14.24;65.21
76611;BME280;65503;48.534;9.062;2023-04-23T01:54:25;96407.28;;;14.26;65.22
76611;BME280;65503;48.534;9.062;2023-04-23T01:56:52;96412.84;;;14.29;65.04
76611;BME280;65503;48.534;9.062;2023-04-23T01:59:21;96415.22;;;14.21;65.41
76611;BME280;65503;48.534;9.062;2023-04-23T02:01:48;96418.94;;;14.20;66.03
76611;BME280;65503;48.534;9.062;2023-04-23T02:04:16;96424.47;;;14.13;66.61
76611;BME280;65503;48.534;9.062;2023-04-23T02:06:45;96414.97;;;14.07;67.30
76611;BME280;65503;48.534;9.062;2023-04-23T02:09:12;96422.09;;;14.01;67.69
76611;BME280;65503;48.534;9.062;2023-04-23T02:11:39;96424.22;;;13.89;68.25
76611;BME280;65503;48.534;9.062;2023-04-23T02:14:07;96416.56;;;13.88;69.20
76611;BME280;65503;48.534;9.062;2023-04-23T02:16:33;96429.50;;;13.79;69.14
76611;BME280;65503;48.534;9.062;2023-04-23T02:19:00;96433.22;;;13.78;69.75
76611;BME280;65503;48.534;9.062;2023-04-23T02:21:27;96424.50;;;13.78;69.95
76611;BME280;65503;48.534;9.062;2023-04-23T02:23:54;96425.78;;;13.75;70.15
76611;BME280;65503;48.534;9.062;2023-04-23T02:26:20;96426.59;;;13.76;70.25
76611;BME280;65503;48.534;9.062;2023-04-23T02:28:48;96426.34;;;13.72;71.07
76611;BME280;65503;48.534;9.062;2023-04-23T02:31:14;96427.09;;;13.68;70.96
76611;BME280;65503;48.534;9.062;2023-04-23T02:33:41;96432.13;;;13.64;71.32
76611;BME280;65503;48.534;9.062;2023-04-23T02:36:08;96431.56;;;13.62;71.56
76611;BME280;65503;48.534;9.062;2023-04-23T02:38:36;96427.38;;;13.61;71.82
76611;BME280;65503;48.534;9.062;2023-04-23T02:41:06;96430.53;;;13.63;71.66
76611;BME280;65503;48.534;9.062;2023-04-23T02:43:33;96439.25;;;13.58;72.09
76611;BME280;65503;48.534;9.062;2023-04-23T02:45:59;96436.34;;;13.60;71.86
76611;BME280;65503;48.534;9.062;2023-04-23T02:48:38;96435.03;;;13.62;71.91
76611;BME280;65503;48.534;9.062;2023-04-23T02:51:07;96431.06;;;13.60;72.03
76611;BME280;65503;48.534;9.062;2023-04-23T02:53:33;96432.66;;;13.61;71.77
76611;BME280;65503;48.534;9.062;2023-04-23T02:56:00;96422.59;;;13.58;72.25
76611;BME280;65503;48.534;9.062;2023-04-23T02:58:28;96423.63;;;13.57;72.29
76611;BME280;65503;48.534;9.062;2023-04-23T03:00:55;96422.59;;;13.53;72.93
76611;BME280;65503;48.534;9.062;2023-04-23T03:03:21;96431.56;;;13.52;73.13
76611;BME280;65503;48.534;9.062;2023-04-23T03:05:52;96421.25;;;13.50;72.89
76611;BME280;65503;48.534;9.062;2023-04-23T03:08:19;96415.16;;;13.50;73.45
76611;BME280;65503;48.534;9.062;2023-04-23T03:10:45;96415.94;;;13.50;72.95
76611;BME280;65503;48.534;9.062;2023-04-23T03:13:12;96414.16;;;13.61;72.90
76611;BME280;65503;48.534;9.062;2023-04-23T03:15:39;96417.31;;;13.68;72.51
76611;BME280;65503;48.534;9.062;2023-04-23T03:18:05;96418.91;;;13.69;72.79
76611;BME280;65503;48.534;9.062;2023-04-23T03:20:34;96412.56;;;13.75;72.35
76611;BME280;65503;48.534;9.062;2023-04-23T03:23:01;96416.25;;;13.69;72.93
76611;BME280;65503;48.534;9.062;2023-04-23T03:25:27;96419.97;;;13.73;72.78
76611;BME280;65503;48.534;9.062;2023-04-23T03:27:53;96417.06;;;13.75;72.72
76611;BME280;65503;48.534;9.062;2023-04-23T03:30:20;96413.09;;;13.72;72.77
76611;BME280;65503;48.534;9.062;2023-04-23T03:32:47;96402.53;;;13.72;72.95
76611;BME280;65503;48.534;9.062;2023-04-23T03:35:13;96407.81;;;13.72;73.14
76611;BME280;65503;48.534;9.062;2023-04-23T03:37:40;96417.84;;;13.70;73.31
76611;BME280;65503;48.534;9.062;2023-04-23T03:40:07;96419.41;;;13.56;73.60
76611;BME280;65503;48.534;9.062;2023-04-23T03:42:34;96420.44;;;13.50;74.04
76611;BME280;65503;48.534;9.062;2023-04-23T03:45:01;96422.09;;;13.61;73.66
76611;BME280;65503;48.534;9.062;2023-04-23T03:47:27;96427.63;;;13.54;73.65
76611;BME280;65503;48.534;9.062;2023-04-23T03:49:54;96429.97;;;13.46;74.22
76611;BME280;65503;48.534;9.062;2023-04-23T03:52:20;96421.00;;;13.52;73.90
76611;BME280;65503;48.534;9.062;2023-04-23T03:54:47;96421.53;;;13.54;73.98
76611;BME280;65503;48.534;9.062;2023-04-23T03:57:13;96425.25;;;13.63;73.64
76611;BME280;65503;48.534;9.062;2023-04-23T03:59:40;96428.44;;;13.65;73.63
76611;BME280;65503;48.534;9.062;2023-04-23T04:02:06;96425.78;;;13.70;73.18
76611;BME280;65503;48.534;9.062;2023-04-23T04:04:33;96430.53;;;13.73;73.09
76611;BME280;65503;48.534;9.062;2023-04-23T04:07:00;96429.47;;;13.69;73.59
76611;BME280;65503;48.534;9.062;2023-04-23T04:09:27;96428.97;;;13.72;72.97
76611;BME280;65503;48.534;9.062;2023-04-23T04:11:54;96433.72;;;13.75;73.41
76611;BME280;65503;48.534;9.062;2023-04-23T04:14:21;96436.91;;;13.72;73.44
76611;BME280;65503;48.534;9.062;2023-04-23T04:16:48;96438.22;;;13.75;73.28
76611;BME280;65503;48.534;9.062;2023-04-23T04:19:15;96433.47;;;13.72;73.77
76611;BME280;65503;48.534;9.062;2023-04-23T04:21:41;96432.38;;;13.68;73.78
76611;BME280;65503;48.534;9.062;2023-04-23T04:24:08;96426.84;;;13.69;73.80
76611;BME280;65503;48.534;9.062;2023-04-23T04:26:36;96431.63;;;13.77;73.31
76611;BME280;65503;48.534;9.062;2023-04-23T04:29:03;96429.50;;;13.79;73.32
76611;BME280;65503;48.534;9.062;2023-04-23T04:31:29;96436.13;;;13.77;73.09
76611;BME280;65503;48.534;9.062;2023-04-23T04:33:57;96434.78;;;13.69;73.59
76611;BME280;65503;48.534;9.062;2023-04-23T04:36:24;96433.47;;;13.72;73.24
76611;BME280;65503;48.534;9.062;2023-04-23T04:38:52;96441.66;;;13.70;72.99
76611;BME280;65503;48.534;9.062;2023-04-23T04:41:21;96431.59;;;13.67;73.27
76611;BME280;65503;48.534;9.062;2023-04-23T04:43:50;96427.38;;;13.61;73.64
76611;BME280;65503;48.534;9.062;2023-04-23T04:46:17;96424.19;;;13.59;73.23
76611;BME280;65503;48.534;9.062;2023-04-23T04:48:47;96432.09;;;13.54;73.31
76611;BME280;65503;48.534;9.062;2023-04-23T04:51:13;96431.81;;;13.50;73.29
76611;BME280;65503;48.534;9.062;2023-04-23T04:53:40;96428.91;;;13.52;73.65
76611;BME280;65503;48.534;9.062;2023-04-23T04:56:07;96428.91;;;13.52;73.61
76611;BME280;65503;48.534;9.062;2023-04-23T04:58:34;96432.63;;;13.51;73.60
76611;BME280;65503;48.534;9.062;2023-04-23T05:01:00;96424.16;;;13.49;73.89
76611;BME280;65503;48.534;9.062;2023-04-23T05:03:27;96436.59;;;13.53;74.20
76611;BME280;65503;48.534;9.062;2023-04-23T05:05:54;96445.31;;;13.49;74.17
76611;BME280;65503;48.534;9.062;2023-04-23T05:08:21;96437.41;;;13.54;73.86
76611;BME280;65503;48.534;9.062;2023-04-23T05:10:48;96438.19;;;13.54;73.61
76611;BME280;65503;48.534;9.062;2023-04-23T05:13:16;96440.84;;;13.59;74.00
76611;BME280;65503;48.534;9.062;2023-04-23T05:15:42;96434.78;;;13.69;73.86
76611;BME280;65503;48.534;9.062;2023-04-23T05:18:09;96444.31;;;13.75;73.91
76611;BME280;65503;48.534;9.062;2023-04-23T05:20:36;96438.22;;;13.80;73.44
76611;BME280;65503;48.534;9.062;2023-04-23T05:23:03;96441.66;;;13.90;73.67
76611;BME280;65503;48.534;9.062;2023-04-23T05:25:30;96440.66;;;14.06;73.42
76611;BME280;65503;48.534;9.062;2023-04-23T05:27:56;96443.78;;;14.19;73.16
76611;BME280;65503;48.534;9.062;2023-04-23T05:30:23;96434.28;;;14.18;72.32
76611;BME280;65503;48.534;9.062;2023-04-23T05:32:49;96434.81;;;14.10;72.31
76611;BME280;65503;48.534;9.062;2023-04-23T05:35:16;96437.47;;;14.15;72.38
76611;BME280;65503;48.534;9.062;2023-04-23T05:37:43;96437.72;;;14.18;72.40
76611;BME280;65503;48.534;9.062;2023-04-23T05:40:09;96424.75;;;14.27;72.37
76611;BME280;65503;48.534;9.062;2023-04-23T05:42:36;96427.41;;;14.12;72.27
76611;BME280;65503;48.534;9.062;2023-04-23T05:45:04;96421.56;;;14.15;71.50
76611;BME280;65503;48.534;9.062;2023-04-23T05:47:33;96413.09;;;14.13;71.49
76611;BME280;65503;48.534;9.062;2023-04-23T05:50:00;96424.22;;;14.20;71.66
76611;BME280;65503;48.534;9.062;2023-04-23T05:52:28;96430.06;;;14.37;71.26
76611;BME280;65503;48.534;9.062;2023-04-23T05:54:58;96436.91;;;14.53;70.53
76611;BME280;65503;48.534;9.062;2023-04-23T05:57:25;96433.09;;;15.00;69.81
76611;BME280;65503;48.534;9.062;2023-04-23T05:59:51;96441.91;;;15.49;69.38
76611;BME280;65503;48.534;9.062;2023-04-23T06:02:18;96438.50;;;15.93;68.19
76611;BME280;65503;48.534;9.062;2023-04-23T06:04:47;96441.63;;;16.00;67.59
76611;BME280;65503;48.534;9.062;2023-04-23T06:07:14;96444.63;;;15.88;66.73
76611;BME280;65503;48.534;9.062;2023-04-23T06:09:41;96444.00;;;16.01;64.66
76611;BME280;65503;48.534;9.062;2023-04-23T06:12:08;96446.25;;;16.23;64.71
76611;BME280;65503;48.534;9.062;2023-04-23T06:14:34;96441.34;;;16.35;63.69
76611;BME280;65503;48.534;9.062;2023-04-23T06:17:01;96437.56;;;16.99;59.96
76611;BME280;65503;48.534;9.062;2023-04-23T06:19:28;96438.88;;;17.25;60.88
76611;BME280;65503;48.534;9.062;2023-04-23T06:21:54;96442.19;;;17.12;60.79
76611;BME280;65503;48.534;9.062;2023-04-23T06:24:21;96448.31;;;16.89;60.96
76611;BME280;65503;48.534;9.062;2023-04-23T06:26:47;96442.28;;;16.49;60.06
76611;BME280;65503;48.534;9.062;2023-04-23T06:29:14;96439.78;;;16.29;62.13
76611;BME280;65503;48.534;9.062;2023-04-23T06:31:41;96441.94;;;16.27;61.84
76611;BME280;65503;48.534;9.062;2023-04-23T06:34:07;96439.34;;;16.22;61.05
76611;BME280;65503;48.534;9.062;2023-04-23T06:36:34;96438.88;;;16.15;62.23
76611;BME280;65503;48.534;9.062;2023-04-23T06:39:00;96443.03;;;16.26;62.48
76611;BME280;65503;48.534;9.062;2023-04-23T06:41:27;96440.16;;;16.51;61.17
76611;BME280;65503;48.534;9.062;2023-04-23T06:43:53;96439.94;;;16.77;59.93
76611;BME280;65503;48.534;9.062;2023-04-23T06:46:20;96442.66;;;17.19;59.73
76611;BME280;65503;48.534;9.062;2023-04-23T06:48:46;96442.31;;;17.87;56.44
76611;BME280;65503;48.534;9.062;2023-04-23T06:51:13;96442.38;;;18.01;55.72
76611;BME280;65503;48.534;9.062;2023-04-23T06:53:40;96434.13;;;17.65;53.81
76611;BME280;65503;48.534;9.062;2023-04-23T06:56:07;96421.16;;;16.92;55.06
76611;BME280;65503;48.534;9.062;2023-04-23T06:58:33;96407.72;;;16.54;55.96
76611;BME280;65503;48.534;9.062;2023-04-23T07:01:00;96418.47;;;16.39;57.87
76611;BME280;65503;48.534;9.062;2023-04-23T07:03:30;96418.34;;;16.83;57.95
76611;BME280;65503;48.534;9.062;2023-04-23T07:05:59;96413.41;;;17.19;56.88
76611;BME280;65503;48.534;9.062;2023-04-23T07:08:26;96404.78;;;17.70;54.34
76611;BME280;65503;48.534;9.062;2023-04-23T07:10:52;96424.66;;;18.10;53.66
76611;BME280;65503;48.534;9.062;2023-04-23T07:13:19;96427.19;;;18.01;53.07
76611;BME280;65503;48.534;9.062;2023-04-23T07:15:45;96428.44;;;18.23;52.54
76611;BME280;65503;48.534;9.062;2023-04-23T07:18:12;96420.63;;;18.45;51.94
76611;BME280;65503;48.534;9.062;2023-04-23T07:20:38;96418.06;;;18.99;50.83
76611;BME280;65503;48.534;9.062;2023-04-23T07:23:05;96416.56;;;18.93;49.35
76611;BME280;65503;48.534;9.062;2023-04-23T07:25:32;96412.31;;;19.06;48.12
76611;BME280;65503;48.534;9.062;2023-04-23T07:27:58;96405.94;;;19.43;48.76
76611;BME280;65503;48.534;9.062;2023-04-23T07:30:26;96413.75;;;19.67;47.91
76611;BME280;65503;48.534;9.062;2023-04-23T07:32:53;96406.97;;;20.05;45.95
76611;BME280;65503;48.534;9.062;2023-04-23T07:35:21;96405.81;;;20.65;46.71
76611;BME280;65503;48.534;9.062;2023-04-23T07:37:47;96395.97;;;21.30;43.38
76611;BME280;65503;48.534;9.062;2023-04-23T07:40:20;96398.38;;;21.49;41.53
76611;BME280;65503;48.534;9.062;2023-04-23T07:42:47;96399.78;;;21.29;42.64
76611;BME280;65503;48.534;9.062;2023-04-23T07:45:14;96384.03;;;21.36;41.34
76611;BME280;65503;48.534;9.062;2023-04-23T07:47:41;96377.63;;;21.63;42.32
76611;BME280;65503;48.534;9.062;2023-04-23T07:50:08;96383.13;;;21.67;39.76
76611;BME280;65503;48.534;9.062;2023-04-23T07:52:35;96390.91;;;20.41;42.89
76611;BME280;65503;48.534;9.062;2023-04-23T07:55:01;96393.81;;;20.09;43.16
76611;BME280;65503;48.534;9.062;2023-04-23T07:57:28;96395.69;;;20.31;42.31
76611;BME280;65503;48.534;9.062;2023-04-23T07:59:54;96402.53;;;20.23;42.52
76611;BME280;65503;48.534;9.062;2023-04-23T08:02:21;96393.38;;;20.99;42.08
76611;BME280;65503;48.534;9.062;2023-04-23T08:04:51;96391.00;;;21.55;39.58
76611;BME280;65503;48.534;9.062;2023-04-23T08:07:18;96395.25;;;21.47;39.76
76611;BME280;65503;48.534;9.062;2023-04-23T08:09:45;96387.03;;;20.87;40.36
76611;BME280;65503;48.534;9.062;2023-04-23T08:12:12;96390.81;;;20.55;41.46
76611;BME280;65503;48.534;9.062;2023-04-23T08:14:38;96389.75;;;21.04;41.24
76611;BME280;65503;48.534;9.062;2023-04-23T08:17:05;96378.41;;;21.64;39.66
76611;BME280;65503;48.534;9.062;2023-04-23T08:19:31;96382.34;;;22.18;39.05
76611;BME280;65503;48.534;9.062;2023-04-23T08:21:58;96372.38;;;22.36;39.43
76611;BME280;65503;48.534;9.062;2023-04-23T08:24:25;96374.31;;;22.27;38.33
76611;BME280;65503;48.534;9.062;2023-04-23T08:26:52;96367.94;;;22.40;37.24
76611;BME280;65503;48.534;9.062;2023-04-23T08:29:18;96374.81;;;22.75;37.57
76611;BME280;65503;48.534;9.062;2023-04-23T08:31:45;96377.31;;;22.80;37.07
76611;BME280;65503;48.534;9.062;2023-04-23T08:34:11;96378.81;;;23.57;35.55
76611;BME280;65503;48.534;9.062;2023-04-23T08:36:40;96376.44;;;24.18;35.83
76611;BME280;65503;48.534;9.062;2023-04-23T08:39:06;96363.34;;;24.86;35.06
76611;BME280;65503;48.534;9.062;2023-04-23T08:41:40;96359.22;;;24.31;32.30
76611;BME280;65503;48.534;9.062;2023-04-23T08:44:18;96364.22;;;24.00;35.55
76611;BME280;65503;48.534;9.062;2023-04-23T08:46:47;96365.06;;;24.45;33.64
76611;BME280;65503;48.534;9.062;2023-04-23T08:49:15;96353.25;;;25.07;34.29
76611;BME280;65503;48.534;9.062;2023-04-23T08:51:48;96351.88;;;25.37;31.29
76611;BME280;65503;48.534;9.062;2023-04-23T08:54:20;96352.69;;;25.38;32.35
76611;BME280;65503;48.534;9.062;2023-04-23T08:56:48;96355.44;;;25.53;32.49
76611;BME280;65503;48.534;9.062;2023-04-23T08:59:17;96357.88;;;25.83;30.82
76611;BME280;65503;48.534;9.062;2023-04-23T09:01:43;96356.81;;;26.27;29.66
76611;BME280;65503;48.534;9.062;2023-04-23T09:04:11;96352.06;;;26.68;29.36
76611;BME280;65503;48.534;9.062;2023-04-23T09:06:42;96346.97;;;25.39;29.26
76611;BME280;65503;48.534;9.062;2023-04-23T09:09:08;96349.81;;;24.49;30.67
76611;BME280;65503;48.534;9.062;2023-04-23T09:11:36;96332.06;;;24.93;30.37
76611;BME280;65503;48.534;9.062;2023-04-23T09:14:03;96314.56;;;24.99;29.46
76611;BME280;65503;48.534;9.062;2023-04-23T09:16:29;96322.25;;;24.52;30.38
76611;BME280;65503;48.534;9.062;2023-04-23T09:18:57;96318.72;;;25.09;29.01
76611;BME280;65503;48.534;9.062;2023-04-23T09:21:24;96316.41;;;25.35;29.45
76611;BME280;65503;48.534;9.062;2023-04-23T09:23:50;96314.44;;;25.20;28.09
76611;BME280;65503;48.534;9.062;2023-04-23T09:26:21;96323.88;;;25.02;29.15
76611;BME280;65503;48.534;9.062;2023-04-23T09:28:49;96320.09;;;24.34;30.19
76611;BME280;65503;48.534;9.062;2023-04-23T09:31:20;96319.13;;;24.50;30.76
76611;BME280;65503;48.534;9.062;2023-04-23T09:33:52;96323.06;;;25.78;30.92
76611;BME280;65503;48.534;9.062;2023-04-23T09:36:22;96329.94;;;26.62;28.33
76611;BME280;65503;48.534;9.062;2023-04-23T09:38:49;96322.28;;;26.21;29.66
76611;BME280;65503;48.534;9.062;2023-04-23T09:41:26;96314.97;;;26.21;28.91
76611;BME280;65503;48.534;9.062;2023-04-23T09:43:54;96310.75;;;25.52;30.43
76611;BME280;65503;48.534;9.062;2023-04-23T09:46:41;96314.91;;;25.10;30.07
76611;BME280;65503;48.534;9.062;2023-04-23T09:49:09;96302.72;;;24.19;30.79
76611;BME280;65503;48.534;9.062;2023-04-23T09:51:41;96302.09;;;24.70;31.32
76611;BME280;65503;48.534;9.062;2023-04-23T09:54:16;96298.38;;;25.24;31.65
76611;BME280;65503;48.534;9.062;2023-04-23T09:56:48;96298.41;;;24.99;29.59
76611;BME280;65503;48.534;9.062;2023-04-23T10:02:06;96282.34;;;25.03;30.77
76611;BME280;65503;48.534;9.062;2023-04-23T10:04:33;96274.94;;;25.12;29.87
76611;BME280;65503;48.534;9.062;2023-04-23T10:07:01;96281.56;;;25.67;29.12
76611;BME280;65503;48.534;9.062;2023-04-23T10:09:44;96266.16;;;25.27;28.89
76611;BME280;65503;48.534;9.062;2023-04-23T10:12:12;96265.94;;;25.20;29.95
76611;BME280;65503;48.534;9.062;2023-04-23T10:14:59;96267.56;;;25.77;29.45
76611;BME280;65503;48.534;9.062;2023-04-23T10:17:25;96258.63;;;25.73;29.89
76611;BME280;65503;48.534;9.062;2023-04-23T10:19:54;96261.53;;;26.11;31.89
76611;BME280;65503;48.534;9.062;2023-04-23T10:22:21;96255.59;;;25.90;28.47
76611;BME280;65503;48.534;9.062;2023-04-23T10:24:51;96242.06;;;25.46;28.64
76611;BME280;65503;48.534;9.062;2023-04-23T10:27:22;96243.13;;;24.53;29.88
76611;BME280;65503;48.534;9.062;2023-04-23T10:30:10;96235.06;;;24.53;31.18
76611;BME280;65503;48.534;9.062;2023-04-23T10:32:38;96230.56;;;24.69;31.26
76611;BME280;65503;48.534;9.062;2023-04-23T10:35:06;96227.41;;;24.19;31.17
76611;BME280;65503;48.534;9.062;2023-04-23T10:37:34;96225.59;;;23.66;32.77
76611;BME280;65503;48.534;9.062;2023-04-23T10:40:08;96229.56;;;23.80;32.23
76611;BME280;65503;48.534;9.062;2023-04-23T10:42:38;96225.13;;;23.97;32.32
76611;BME280;65503;48.534;9.062;2023-04-23T10:45:17;96221.78;;;24.12;31.61
76611;BME280;65503;48.534;9.062;2023-04-23T10:47:46;96214.88;;;24.35;30.84
76611;BME280;65503;48.534;9.062;2023-04-23T10:50:39;96209.94;;;24.25;30.59
76611;BME280;65503;48.534;9.062;2023-04-23T10:53:30;96210.50;;;24.18;31.96
76611;BME280;65503;48.534;9.062;2023-04-23T10:56:04;96210.28;;;23.45;32.80
76611;BME280;65503;48.534;9.062;2023-04-23T10:59:01;96206.34;;;23.43;32.28
76611;BME280;65503;48.534;9.062;2023-04-23T11:01:28;96213.16;;;23.40;32.63
76611;BME280;65503;48.534;9.062;2023-04-23T11:03:55;96207.91;;;23.44;32.24
76611;BME280;65503;48.534;9.062;2023-04-23T11:12:02;96197.28;;;23.68;32.42
76611;BME280;65503;48.534;9.062;2023-04-23T11:17:12;96192.50;;;23.86;32.37
76611;BME280;65503;48.534;9.062;2023-04-23T11:19:39;96186.91;;;23.46;32.18
76611;BME280;65503;48.534;9.062;2023-04-23T11:22:16;96188.94;;;22.37;34.79
76611;BME280;65503;48.534;9.062;2023-04-23T11:24:44;96179.13;;;22.11;34.98
76611;BME280;65503;48.534;9.062;2023-04-23T11:27:16;96183.88;;;22.94;33.94
76611;BME280;65503;48.534;9.062;2023-04-23T11:29:44;96185.13;;;23.50;33.18
76611;BME280;65503;48.534;9.062;2023-04-23T11:32:14;96182.75;;;23.94;32.36
76611;BME280;65503;48.534;9.062;2023-04-23T11:34:43;96173.50;;;24.27;31.86
76611;BME280;65503;48.534;9.062;2023-04-23T11:37:11;96171.94;;;24.39;31.33
76611;BME280;65503;48.534;9.062;2023-04-23T11:39:39;96160.75;;;24.24;30.65
76611;BME280;65503;48.534;9.062;2023-04-23T11:42:14;96155.22;;;23.97;32.14
76611;BME280;65503;48.534;9.062;2023-04-23T11:44:42;96145.03;;;24.14;33.48
76611;BME280;65503;48.534;9.062;2023-04-23T11:47:11;96146.59;;;23.91;32.33
76611;BME280;65503;48.534;9.062;2023-04-23T11:49:38;96153.66;;;23.96;32.20
76611;BME280;65503;48.534;9.062;2023-04-23T11:52:06;96146.94;;;24.14;31.02
76611;BME280;65503;48.534;9.062;2023-04-23T11:54:32;96143.56;;;24.17;33.12
76611;BME280;65503;48.534;9.062;2023-04-23T11:56:59;96136.41;;;24.09;32.09
76611;BME280;65503;48.534;9.062;2023-04-23T11:59:27;96138.66;;;24.07;31.88
76611;BME280;65503;48.534;9.062;2023-04-23T12:01:55;96134.75;;;24.28;32.47
76611;BME280;65503;48.534;9.062;2023-04-23T12:04:24;96135.25;;;24.70;30.37
76611;BME280;65503;48.534;9.062;2023-04-23T12:06:52;96133.72;;;24.45;31.17
76611;BME280;65503;48.534;9.062;2023-04-23T12:09:21;96126.69;;;24.93;30.49
76611;BME280;65503;48.534;9.062;2023-04-23T12:11:49;96124.13;;;25.12;30.96
76611;BME280;65503;48.534;9.062;2023-04-23T12:14:22;96122.38;;;25.04;29.40
76611;BME280;65503;48.534;9.062;2023-04-23T12:16:52;96123.25;;;25.08;29.63
76611;BME280;65503;48.534;9.062;2023-04-23T12:19:21;96112.97;;;24.98;29.35
76611;BME280;65503;48.534;9.062;2023-04-23T12:21:52;96105.19;;;24.68;32.18
76611;BME280;65503;48.534;9.062;2023-04-23T12:24:24;96102.03;;;24.66;30.13
76611;BME280;65503;48.534;9.062;2023-04-23T12:26:53;96095.94;;;24.94;30.19
76611;BME280;65503;48.534;9.062;2023-04-23T12:29:21;96092.41;;;24.65;30.06
76611;BME280;65503;48.534;9.062;2023-04-23T12:31:49;96083.66;;;24.68;30.41
76611;BME280;65503;48.534;9.062;2023-04-23T12:34:18;96087.91;;;25.09;30.70
76611;BME280;65503;48.534;9.062;2023-04-23T12:36:47;96080.34;;;25.15;31.58
76611;BME280;65503;48.534;9.062;2023-04-23T12:39:28;96082.25;;;24.47;31.95
76611;BME280;65503;48.534;9.062;2023-04-23T12:41:57;96085.28;;;24.45;31.43
76611;BME280;65503;48.534;9.062;2023-04-23T12:44:25;96072.53;;;24.30;31.32
76611;BME280;65503;48.534;9.062;2023-04-23T12:47:03;96071.22;;;24.64;31.37
76611;BME280;65503;48.534;9.062;2023-04-23T12:49:31;96071.41;;;24.43;30.13
76611;BME280;65503;48.534;9.062;2023-04-23T12:51:59;96062.69;;;24.10;31.60
76611;BME280;65503;48.534;9.062;2023-04-23T12:54:30;96063.38;;;24.07;32.63
76611;BME280;65503;48.534;9.062;2023-04-23T12:56:57;96062.34;;;23.99;32.44
76611;BME280;65503;48.534;9.062;2023-04-23T12:59:25;96057.09;;;23.78;32.37
76611;BME280;65503;48.534;9.062;2023-04-23T13:01:51;96051.09;;;23.24;33.52
76611;BME280;65503;48.534;9.062;2023-04-23T13:04:18;96065.53;;;22.66;33.21
76611;BME280;65503;48.534;9.062;2023-04-23T13:06:45;96045.41;;;22.60;34.94
76611;BME280;65503;48.534;9.062;2023-04-23T13:09:11;96044.97;;;23.24;37.18
76611;BME280;65503;48.534;9.062;2023-04-23T13:11:39;96034.19;;;23.12;35.28
76611;BME280;65503;48.534;9.062;2023-04-23T13:14:06;96031.53;;;23.24;35.10
76611;BME280;65503;48.534;9.062;2023-04-23T13:16:33;96036.91;;;23.24;34.96